sensor_id;sensor_type;location;lat;lon;timestamp;P1;durP1;ratioP1;P2;durP2;ratioP2
14849;SDS011;7517;48.400;11.770;2022-08-19T00:01:25;4.43;;;4.13;;
14849;SDS011;7517;48.400;11.770;2022-08-19T00:03:54;4.43;;;4.10;;
14849;SDS011;7517;48.400;11.770;2022-08-19T00:06:21;4.33;;;4.03;;
14849;SDS011;7517;48.400;11.770;2022-08-19T00:08:49;4.37;;;4.07;;
14849;SDS011;7517;48.400;11.770;2022-08-19T00:11:16;4.43;;;4.10;;
14849;SDS011;7517;48.400;11.770;2022-08-19T00:13:47;3.87;;;3.63;;
14849;SDS011;7517;48.400;11.770;2022-08-19T00:16:15;3.43;;;3.23;;
14849;SDS011;7517;48.400;11.770;2022-08-19T00:18:43;3.57;;;3.27;;
14849;SDS011;7517;48.400;11.770;2022-08-19T00:21:10;3.70;;;3.50;;
14849;SDS011;7517;48.400;11.770;2022-08-19T00:23:37;3.40;;;3.20;;
14849;SDS011;7517;48.400;11.770;2022-08-19T00:26:05;3.70;;;3.40;;
14849;SDS011;7517;48.400;11.770;2022-08-19T00:28:33;3.33;;;3.13;;
14849;SDS011;7517;48.400;11.770;2022-08-19T00:31:02;3.30;;;3.10;;
14849;SDS011;7517;48.400;11.770;2022-08-19T00:33:31;3.07;;;2.87;;
14849;SDS011;7517;48.400;11.770;2022-08-19T00:35:59;3.17;;;2.97;;
14849;SDS011;7517;48.400;11.770;2022-08-19T00:38:29;3.03;;;2.83;;
14849;SDS011;7517;48.400;11.770;2022-08-19T00:40:58;3.20;;;3.00;;
14849;SDS011;7517;48.400;11.770;2022-08-19T00:43:26;2.77;;;2.63;;
14849;SDS011;7517;48.400;11.770;2022-08-19T00:45:54;3.03;;;2.83;;
14849;SDS011;7517;48.400;11.770;2022-08-19T00:48:23;2.87;;;2.67;;
14849;SDS011;7517;48.400;11.770;2022-08-19T00:50:50;2.67;;;2.53;;
14849;SDS011;7517;48.400;11.770;2022-08-19T00:53:21;2.97;;;2.77;;
14849;SDS011;7517;48.400;11.770;2022-08-19T00:55:54;3.00;;;2.77;;
14849;SDS011;7517;48.400;11.770;2022-08-19T00:58:26;2.50;;;2.30;;
14849;SDS011;7517;48.400;11.770;2022-08-19T01:00:58;2.83;;;2.63;;
14849;SDS011;7517;48.400;11.770;2022-08-19T01:03:28;2.53;;;2.33;;
14849;SDS011;7517;48.400;11.770;2022-08-19T01:05:55;2.77;;;2.57;;
14849;SDS011;7517;48.400;11.770;2022-08-19T01:08:22;3.37;;;3.07;;
14849;SDS011;7517;48.400;11.770;2022-08-19T01:10:52;2.80;;;2.60;;
14849;SDS011;7517;48.400;11.770;2022-08-19T01:13:26;2.73;;;2.53;;
14849;SDS011;7517;48.400;11.770;2022-08-19T01:15:59;3.20;;;3.00;;
14849;SDS011;7517;48.400;11.770;2022-08-19T01:18:32;2.80;;;2.70;;
14849;SDS011;7517;48.400;11.770;2022-08-19T01:21:07;2.87;;;2.67;;
14849;SDS011;7517;48.400;11.770;2022-08-19T01:23:45;2.97;;;2.77;;
14849;SDS011;7517;48.400;11.770;2022-08-19T01:26:13;3.17;;;2.97;;
14849;SDS011;7517;48.400;11.770;2022-08-19T01:28:46;2.50;;;2.40;;
14849;SDS011;7517;48.400;11.770;2022-08-19T01:33:49;2.97;;;2.80;;
14849;SDS011;7517;48.400;11.770;2022-08-19T01:36:22;3.37;;;3.13;;
14849;SDS011;7517;48.400;11.770;2022-08-19T01:38:54;3.33;;;3.07;;
14849;SDS011;7517;48.400;11.770;2022-08-19T01:41:23;3.33;;;3.13;;
14849;SDS011;7517;48.400;11.770;2022-08-19T01:43:51;3.17;;;2.97;;
14849;SDS011;7517;48.400;11.770;2022-08-19T01:46:19;3.07;;;2.87;;
14849;SDS011;7517;48.400;11.770;2022-08-19T01:48:46;3.33;;;3.13;;
14849;SDS011;7517;48.400;11.770;2022-08-19T01:51:13;2.97;;;2.77;;
14849;SDS011;7517;48.400;11.770;2022-08-19T01:53:41;3.00;;;2.80;;
14849;SDS011;7517;48.400;11.770;2022-08-19T01:56:10;2.90;;;2.70;;
14849;SDS011;7517;48.400;11.770;2022-08-19T01:58:38;3.13;;;2.93;;
14849;SDS011;7517;48.400;11.770;2022-08-19T02:01:11;3.20;;;3.00;;
14849;SDS011;7517;48.400;11.770;2022-08-19T02:03:39;3.20;;;3.00;;
14849;SDS011;7517;48.400;11.770;2022-08-19T02:06:06;3.00;;;2.80;;
14849;SDS011;7517;48.400;11.770;2022-08-19T02:08:34;3.17;;;2.97;;
14849;SDS011;7517;48.400;11.770;2022-08-19T02:11:04;3.20;;;2.90;;
14849;SDS011;7517;48.400;11.770;2022-08-19T02:13:34;3.00;;;2.80;;
14849;SDS011;7517;48.400;11.770;2022-08-19T02:16:02;3.13;;;2.83;;
14849;SDS011;7517;48.400;11.770;2022-08-19T02:18:29;3.00;;;2.80;;
14849;SDS011;7517;48.400;11.770;2022-08-19T02:20:56;2.90;;;2.70;;
14849;SDS011;7517;48.400;11.770;2022-08-19T02:23:24;3.23;;;3.03;;
14849;SDS011;7517;48.400;11.770;2022-08-19T02:25:52;2.93;;;2.73;;
14849;SDS011;7517;48.400;11.770;2022-08-19T02:28:19;3.07;;;2.87;;
14849;SDS011;7517;48.400;11.770;2022-08-19T02:30:47;3.33;;;3.13;;
14849;SDS011;7517;48.400;11.770;2022-08-19T02:33:15;3.10;;;2.90;;
14849;SDS011;7517;48.400;11.770;2022-08-19T02:35:43;2.43;;;2.33;;
14849;SDS011;7517;48.400;11.770;2022-08-19T02:38:11;3.17;;;2.97;;
14849;SDS011;7517;48.400;11.770;2022-08-19T02:40:51;2.73;;;2.53;;
14849;SDS011;7517;48.400;11.770;2022-08-19T02:43:21;2.90;;;2.63;;
14849;SDS011;7517;48.400;11.770;2022-08-19T02:45:52;2.70;;;2.60;;
14849;SDS011;7517;48.400;11.770;2022-08-19T02:48:21;2.70;;;2.57;;
14849;SDS011;7517;48.400;11.770;2022-08-19T02:50:51;2.33;;;2.17;;
14849;SDS011;7517;48.400;11.770;2022-08-19T02:53:20;2.40;;;2.30;;
14849;SDS011;7517;48.400;11.770;2022-08-19T02:55:49;2.27;;;2.17;;
14849;SDS011;7517;48.400;11.770;2022-08-19T02:58:17;2.07;;;1.97;;
14849;SDS011;7517;48.400;11.770;2022-08-19T03:00:46;2.20;;;2.00;;
14849;SDS011;7517;48.400;11.770;2022-08-19T03:03:18;1.80;;;1.70;;
14849;SDS011;7517;48.400;11.770;2022-08-19T03:05:46;2.03;;;1.93;;
14849;SDS011;7517;48.400;11.770;2022-08-19T03:08:14;1.70;;;1.60;;
14849;SDS011;7517;48.400;11.770;2022-08-19T03:10:42;1.70;;;1.60;;
14849;SDS011;7517;48.400;11.770;2022-08-19T03:13:12;1.70;;;1.60;;
14849;SDS011;7517;48.400;11.770;2022-08-19T03:15:42;1.30;;;1.30;;
14849;SDS011;7517;48.400;11.770;2022-08-19T03:18:12;1.50;;;1.40;;
14849;SDS011;7517;48.400;11.770;2022-08-19T03:20:43;1.60;;;1.50;;
14849;SDS011;7517;48.400;11.770;2022-08-19T03:23:13;1.70;;;1.40;;
14849;SDS011;7517;48.400;11.770;2022-08-19T03:25:42;1.73;;;1.50;;
14849;SDS011;7517;48.400;11.770;2022-08-19T03:28:12;1.37;;;1.27;;
14849;SDS011;7517;48.400;11.770;2022-08-19T03:30:42;1.53;;;1.43;;
14849;SDS011;7517;48.400;11.770;2022-08-19T03:33:21;1.60;;;1.50;;
14849;SDS011;7517;48.400;11.770;2022-08-19T03:36:00;1.40;;;1.30;;
14849;SDS011;7517;48.400;11.770;2022-08-19T03:38:30;1.73;;;1.63;;
14849;SDS011;7517;48.400;11.770;2022-08-19T03:41:01;1.87;;;1.77;;
14849;SDS011;7517;48.400;11.770;2022-08-19T03:43:31;1.70;;;1.60;;
14849;SDS011;7517;48.400;11.770;2022-08-19T03:46:00;3.47;;;1.90;;
14849;SDS011;7517;48.400;11.770;2022-08-19T03:48:30;1.60;;;1.50;;
14849;SDS011;7517;48.400;11.770;2022-08-19T03:50:59;2.00;;;1.40;;
14849;SDS011;7517;48.400;11.770;2022-08-19T03:53:29;1.67;;;1.57;;
14849;SDS011;7517;48.400;11.770;2022-08-19T03:55:58;2.77;;;1.80;;
14849;SDS011;7517;48.400;11.770;2022-08-19T03:58:27;1.87;;;1.77;;
14849;SDS011;7517;48.400;11.770;2022-08-19T04:00:55;1.83;;;1.67;;
14849;SDS011;7517;48.400;11.770;2022-08-19T04:03:23;1.83;;;1.73;;
14849;SDS011;7517;48.400;11.770;2022-08-19T04:05:52;2.10;;;1.90;;
14849;SDS011;7517;48.400;11.770;2022-08-19T04:08:21;1.77;;;1.67;;
14849;SDS011;7517;48.400;11.770;2022-08-19T04:10:48;2.63;;;2.43;;
14849;SDS011;7517;48.400;11.770;2022-08-19T04:13:16;2.40;;;2.30;;
14849;SDS011;7517;48.400;11.770;2022-08-19T04:15:44;3.53;;;2.10;;
14849;SDS011;7517;48.400;11.770;2022-08-19T04:18:12;2.40;;;2.30;;
14849;SDS011;7517;48.400;11.770;2022-08-19T04:20:41;2.80;;;2.53;;
14849;SDS011;7517;48.400;11.770;2022-08-19T04:23:10;2.63;;;2.43;;
14849;SDS011;7517;48.400;11.770;2022-08-19T04:25:40;2.33;;;2.13;;
14849;SDS011;7517;48.400;11.770;2022-08-19T04:28:11;2.63;;;2.43;;
14849;SDS011;7517;48.400;11.770;2022-08-19T04:30:39;2.70;;;2.50;;
14849;SDS011;7517;48.400;11.770;2022-08-19T04:33:09;2.73;;;2.53;;
14849;SDS011;7517;48.400;11.770;2022-08-19T04:35:38;2.90;;;2.70;;
14849;SDS011;7517;48.400;11.770;2022-08-19T04:38:09;2.70;;;2.53;;
14849;SDS011;7517;48.400;11.770;2022-08-19T04:40:40;2.73;;;2.53;;
14849;SDS011;7517;48.400;11.770;2022-08-19T04:43:27;2.70;;;2.53;;
14849;SDS011;7517;48.400;11.770;2022-08-19T04:45:54;2.80;;;2.60;;
14849;SDS011;7517;48.400;11.770;2022-08-19T04:48:22;2.80;;;2.60;;
14849;SDS011;7517;48.400;11.770;2022-08-19T04:50:51;3.07;;;2.87;;
14849;SDS011;7517;48.400;11.770;2022-08-19T04:53:22;3.30;;;3.00;;
14849;SDS011;7517;48.400;11.770;2022-08-19T04:55:55;2.67;;;2.50;;
14849;SDS011;7517;48.400;11.770;2022-08-19T04:58:24;2.30;;;2.20;;
14849;SDS011;7517;48.400;11.770;2022-08-19T05:00:53;3.27;;;2.97;;
14849;SDS011;7517;48.400;11.770;2022-08-19T05:03:20;2.67;;;2.50;;
14849;SDS011;7517;48.400;11.770;2022-08-19T05:05:48;3.20;;;3.00;;
14849;SDS011;7517;48.400;11.770;2022-08-19T05:08:19;3.33;;;3.13;;
14849;SDS011;7517;48.400;11.770;2022-08-19T05:10:48;3.60;;;3.27;;
14849;SDS011;7517;48.400;11.770;2022-08-19T05:13:19;3.67;;;2.87;;
14849;SDS011;7517;48.400;11.770;2022-08-19T05:15:55;3.20;;;3.00;;
14849;SDS011;7517;48.400;11.770;2022-08-19T05:18:24;3.33;;;3.03;;
14849;SDS011;7517;48.400;11.770;2022-08-19T05:21:10;3.87;;;3.53;;
14849;SDS011;7517;48.400;11.770;2022-08-19T05:24:01;3.00;;;2.80;;
14849;SDS011;7517;48.400;11.770;2022-08-19T05:26:28;3.67;;;3.43;;
14849;SDS011;7517;48.400;11.770;2022-08-19T05:28:57;3.47;;;3.17;;
14849;SDS011;7517;48.400;11.770;2022-08-19T05:31:24;3.50;;;3.30;;
14849;SDS011;7517;48.400;11.770;2022-08-19T05:33:51;3.20;;;3.00;;
14849;SDS011;7517;48.400;11.770;2022-08-19T05:36:18;3.87;;;3.57;;
14849;SDS011;7517;48.400;11.770;2022-08-19T05:38:46;4.40;;;4.07;;
14849;SDS011;7517;48.400;11.770;2022-08-19T05:41:15;3.97;;;3.67;;
14849;SDS011;7517;48.400;11.770;2022-08-19T05:43:42;3.67;;;3.43;;
14849;SDS011;7517;48.400;11.770;2022-08-19T05:46:13;3.90;;;3.60;;
14849;SDS011;7517;48.400;11.770;2022-08-19T05:48:44;4.03;;;3.67;;
14849;SDS011;7517;48.400;11.770;2022-08-19T05:51:12;4.30;;;4.00;;
14849;SDS011;7517;48.400;11.770;2022-08-19T05:53:39;4.13;;;3.83;;
14849;SDS011;7517;48.400;11.770;2022-08-19T05:56:07;4.07;;;3.77;;
14849;SDS011;7517;48.400;11.770;2022-08-19T05:58:38;4.00;;;3.73;;
14849;SDS011;7517;48.400;11.770;2022-08-19T06:01:09;4.23;;;3.93;;
14849;SDS011;7517;48.400;11.770;2022-08-19T06:03:40;4.37;;;4.07;;
14849;SDS011;7517;48.400;11.770;2022-08-19T06:06:09;4.40;;;4.00;;
14849;SDS011;7517;48.400;11.770;2022-08-19T06:08:38;4.53;;;4.23;;
14849;SDS011;7517;48.400;11.770;2022-08-19T06:11:12;4.40;;;4.10;;
14849;SDS011;7517;48.400;11.770;2022-08-19T06:13:45;4.23;;;3.93;;
14849;SDS011;7517;48.400;11.770;2022-08-19T06:16:17;5.13;;;4.73;;
14849;SDS011;7517;48.400;11.770;2022-08-19T06:18:48;5.37;;;4.90;;
14849;SDS011;7517;48.400;11.770;2022-08-19T06:21:18;4.83;;;4.43;;
14849;SDS011;7517;48.400;11.770;2022-08-19T06:23:46;5.20;;;4.80;;
14849;SDS011;7517;48.400;11.770;2022-08-19T06:26:13;4.97;;;4.57;;
14849;SDS011;7517;48.400;11.770;2022-08-19T06:28:42;5.37;;;4.87;;
14849;SDS011;7517;48.400;11.770;2022-08-19T06:31:11;5.70;;;5.03;;
14849;SDS011;7517;48.400;11.770;2022-08-19T06:33:42;5.33;;;4.83;;
14849;SDS011;7517;48.400;11.770;2022-08-19T06:36:16;5.17;;;4.77;;
14849;SDS011;7517;48.400;11.770;2022-08-19T06:38:45;5.70;;;5.20;;
14849;SDS011;7517;48.400;11.770;2022-08-19T06:41:13;5.60;;;5.03;;
14849;SDS011;7517;48.400;11.770;2022-08-19T06:43:40;5.80;;;5.27;;
14849;SDS011;7517;48.400;11.770;2022-08-19T06:46:12;5.83;;;5.33;;
14849;SDS011;7517;48.400;11.770;2022-08-19T06:48:42;5.60;;;5.20;;
14849;SDS011;7517;48.400;11.770;2022-08-19T06:51:10;6.40;;;5.80;;
14849;SDS011;7517;48.400;11.770;2022-08-19T06:53:40;5.63;;;5.17;;
14849;SDS011;7517;48.400;11.770;2022-08-19T06:56:12;5.40;;;4.90;;
14849;SDS011;7517;48.400;11.770;2022-08-19T06:58:40;5.27;;;4.87;;
14849;SDS011;7517;48.400;11.770;2022-08-19T07:01:08;5.63;;;4.70;;
14849;SDS011;7517;48.400;11.770;2022-08-19T07:03:36;6.27;;;5.77;;
14849;SDS011;7517;48.400;11.770;2022-08-19T07:06:08;5.87;;;5.27;;
14849;SDS011;7517;48.400;11.770;2022-08-19T07:08:37;6.50;;;5.87;;
14849;SDS011;7517;48.400;11.770;2022-08-19T07:11:06;5.80;;;5.40;;
14849;SDS011;7517;48.400;11.770;2022-08-19T07:13:35;6.00;;;5.57;;
14849;SDS011;7517;48.400;11.770;2022-08-19T07:16:04;6.40;;;5.90;;
14849;SDS011;7517;48.400;11.770;2022-08-19T07:18:32;6.73;;;6.13;;
14849;SDS011;7517;48.400;11.770;2022-08-19T07:21:04;6.60;;;6.00;;
14849;SDS011;7517;48.400;11.770;2022-08-19T07:23:34;7.13;;;6.50;;
14849;SDS011;7517;48.400;11.770;2022-08-19T07:26:04;6.23;;;5.73;;
14849;SDS011;7517;48.400;11.770;2022-08-19T07:28:33;7.53;;;6.90;;
14849;SDS011;7517;48.400;11.770;2022-08-19T07:31:01;7.00;;;6.40;;
14849;SDS011;7517;48.400;11.770;2022-08-19T07:33:28;7.23;;;6.53;;
14849;SDS011;7517;48.400;11.770;2022-08-19T07:35:57;7.27;;;6.57;;
14849;SDS011;7517;48.400;11.770;2022-08-19T07:38:26;7.10;;;6.50;;
14849;SDS011;7517;48.400;11.770;2022-08-19T07:40:53;7.53;;;6.83;;
14849;SDS011;7517;48.400;11.770;2022-08-19T07:43:20;7.53;;;6.83;;
14849;SDS011;7517;48.400;11.770;2022-08-19T07:45:51;8.53;;;7.23;;
14849;SDS011;7517;48.400;11.770;2022-08-19T07:48:21;8.77;;;7.93;;
14849;SDS011;7517;48.400;11.770;2022-08-19T07:50:50;7.93;;;7.23;;
14849;SDS011;7517;48.400;11.770;2022-08-19T07:53:19;8.07;;;7.33;;
14849;SDS011;7517;48.400;11.770;2022-08-19T07:55:48;9.27;;;8.33;;
14849;SDS011;7517;48.400;11.770;2022-08-19T07:58:17;9.87;;;8.10;;
14849;SDS011;7517;48.400;11.770;2022-08-19T08:00:47;8.73;;;7.83;;
14849;SDS011;7517;48.400;11.770;2022-08-19T08:03:17;8.77;;;7.87;;
14849;SDS011;7517;48.400;11.770;2022-08-19T08:06:09;7.67;;;6.97;;
14849;SDS011;7517;48.400;11.770;2022-08-19T08:08:54;7.77;;;7.07;;
14849;SDS011;7517;48.400;11.770;2022-08-19T08:11:38;8.47;;;7.57;;
14849;SDS011;7517;48.400;11.770;2022-08-19T08:14:14;8.70;;;7.80;;
14849;SDS011;7517;48.400;11.770;2022-08-19T08:16:42;8.93;;;8.03;;
14849;SDS011;7517;48.400;11.770;2022-08-19T08:19:11;9.07;;;8.17;;
14849;SDS011;7517;48.400;11.770;2022-08-19T08:21:40;9.63;;;8.17;;
14849;SDS011;7517;48.400;11.770;2022-08-19T08:24:09;10.03;;;8.53;;
14849;SDS011;7517;48.400;11.770;2022-08-19T08:26:38;9.13;;;8.30;;
14849;SDS011;7517;48.400;11.770;2022-08-19T08:29:06;9.67;;;8.77;;
14849;SDS011;7517;48.400;11.770;2022-08-19T08:31:36;9.53;;;8.60;;
14849;SDS011;7517;48.400;11.770;2022-08-19T08:34:03;10.43;;;9.43;;
14849;SDS011;7517;48.400;11.770;2022-08-19T08:36:31;8.70;;;7.80;;
14849;SDS011;7517;48.400;11.770;2022-08-19T08:38:58;10.67;;;8.57;;
14849;SDS011;7517;48.400;11.770;2022-08-19T08:41:28;9.17;;;8.23;;
14849;SDS011;7517;48.400;11.770;2022-08-19T08:44:04;9.10;;;8.20;;
14849;SDS011;7517;48.400;11.770;2022-08-19T08:46:34;8.83;;;8.03;;
14849;SDS011;7517;48.400;11.770;2022-08-19T08:49:06;9.17;;;8.27;;
14849;SDS011;7517;48.400;11.770;2022-08-19T08:51:51;8.13;;;7.23;;
14849;SDS011;7517;48.400;11.770;2022-08-19T08:54:28;9.33;;;8.13;;
14849;SDS011;7517;48.400;11.770;2022-08-19T08:57:02;10.97;;;8.00;;
14849;SDS011;7517;48.400;11.770;2022-08-19T08:59:39;8.07;;;7.27;;
14849;SDS011;7517;48.400;11.770;2022-08-19T09:02:09;8.00;;;7.30;;
14849;SDS011;7517;48.400;11.770;2022-08-19T09:04:36;8.50;;;7.53;;
14849;SDS011;7517;48.400;11.770;2022-08-19T09:07:18;8.40;;;7.57;;
14849;SDS011;7517;48.400;11.770;2022-08-19T09:10:01;9.60;;;8.60;;
14849;SDS011;7517;48.400;11.770;2022-08-19T09:12:38;8.97;;;8.03;;
14849;SDS011;7517;48.400;11.770;2022-08-19T09:15:22;8.40;;;7.63;;
14849;SDS011;7517;48.400;11.770;2022-08-19T09:17:59;9.77;;;8.27;;
14849;SDS011;7517;48.400;11.770;2022-08-19T09:20:28;9.53;;;8.60;;
14849;SDS011;7517;48.400;11.770;2022-08-19T09:22:57;10.00;;;8.93;;
14849;SDS011;7517;48.400;11.770;2022-08-19T09:25:24;10.90;;;9.73;;
14849;SDS011;7517;48.400;11.770;2022-08-19T09:27:52;9.93;;;8.90;;
14849;SDS011;7517;48.400;11.770;2022-08-19T09:30:23;11.30;;;9.43;;
14849;SDS011;7517;48.400;11.770;2022-08-19T09:32:53;10.47;;;9.37;;
14849;SDS011;7517;48.400;11.770;2022-08-19T09:35:21;10.13;;;9.03;;
14849;SDS011;7517;48.400;11.770;2022-08-19T09:37:52;10.70;;;9.53;;
14849;SDS011;7517;48.400;11.770;2022-08-19T09:40:19;12.37;;;10.07;;
14849;SDS011;7517;48.400;11.770;2022-08-19T09:42:47;12.83;;;9.87;;
14849;SDS011;7517;48.400;11.770;2022-08-19T09:45:14;12.17;;;10.03;;
14849;SDS011;7517;48.400;11.770;2022-08-19T09:47:43;11.03;;;9.47;;
14849;SDS011;7517;48.400;11.770;2022-08-19T09:50:11;11.40;;;10.10;;
14849;SDS011;7517;48.400;11.770;2022-08-19T09:52:39;12.73;;;10.33;;
14849;SDS011;7517;48.400;11.770;2022-08-19T09:55:07;11.50;;;10.20;;
14849;SDS011;7517;48.400;11.770;2022-08-19T09:57:37;11.67;;;10.03;;
14849;SDS011;7517;48.400;11.770;2022-08-19T10:00:05;12.20;;;10.70;;
14849;SDS011;7517;48.400;11.770;2022-08-19T10:02:35;10.97;;;9.87;;
14849;SDS011;7517;48.400;11.770;2022-08-19T10:05:04;12.80;;;11.20;;
14849;SDS011;7517;48.400;11.770;2022-08-19T10:07:49;11.17;;;9.97;;
14849;SDS011;7517;48.400;11.770;2022-08-19T10:10:16;11.60;;;10.40;;
14849;SDS011;7517;48.400;11.770;2022-08-19T10:12:45;13.53;;;10.57;;
14849;SDS011;7517;48.400;11.770;2022-08-19T10:15:13;9.90;;;8.90;;
14849;SDS011;7517;48.400;11.770;2022-08-19T10:17:41;10.20;;;9.20;;
14849;SDS011;7517;48.400;11.770;2022-08-19T10:20:10;9.83;;;8.93;;
14849;SDS011;7517;48.400;11.770;2022-08-19T10:22:37;9.00;;;8.10;;
14849;SDS011;7517;48.400;11.770;2022-08-19T10:25:06;8.87;;;7.97;;
14849;SDS011;7517;48.400;11.770;2022-08-19T10:27:34;10.33;;;8.30;;
14849;SDS011;7517;48.400;11.770;2022-08-19T10:30:03;8.50;;;7.70;;
14849;SDS011;7517;48.400;11.770;2022-08-19T10:32:31;8.50;;;7.70;;
14849;SDS011;7517;48.400;11.770;2022-08-19T10:34:59;7.47;;;6.70;;
14849;SDS011;7517;48.400;11.770;2022-08-19T10:37:27;6.87;;;6.30;;
14849;SDS011;7517;48.400;11.770;2022-08-19T10:39:55;6.57;;;5.97;;
14849;SDS011;7517;48.400;11.770;2022-08-19T10:42:22;6.60;;;6.00;;
14849;SDS011;7517;48.400;11.770;2022-08-19T10:44:50;6.33;;;5.73;;
14849;SDS011;7517;48.400;11.770;2022-08-19T10:47:17;6.00;;;5.50;;
14849;SDS011;7517;48.400;11.770;2022-08-19T10:49:45;5.57;;;5.13;;
14849;SDS011;7517;48.400;11.770;2022-08-19T10:52:34;5.57;;;5.17;;
14849;SDS011;7517;48.400;11.770;2022-08-19T10:55:02;5.50;;;5.10;;
14849;SDS011;7517;48.400;11.770;2022-08-19T10:57:50;4.03;;;3.73;;
14849;SDS011;7517;48.400;11.770;2022-08-19T11:00:18;4.50;;;4.20;;
14849;SDS011;7517;48.400;11.770;2022-08-19T11:02:48;4.57;;;4.23;;
14849;SDS011;7517;48.400;11.770;2022-08-19T11:05:15;4.10;;;3.80;;
14849;SDS011;7517;48.400;11.770;2022-08-19T11:07:44;4.47;;;4.17;;
14849;SDS011;7517;48.400;11.770;2022-08-19T11:10:12;4.03;;;3.77;;
14849;SDS011;7517;48.400;11.770;2022-08-19T11:12:44;4.13;;;3.83;;
14849;SDS011;7517;48.400;11.770;2022-08-19T11:15:13;5.30;;;4.90;;
14849;SDS011;7517;48.400;11.770;2022-08-19T11:17:40;5.70;;;5.20;;
14849;SDS011;7517;48.400;11.770;2022-08-19T11:20:09;6.03;;;5.53;;
14849;SDS011;7517;48.400;11.770;2022-08-19T11:22:38;6.37;;;5.87;;
14849;SDS011;7517;48.400;11.770;2022-08-19T11:25:08;6.27;;;5.77;;
14849;SDS011;7517;48.400;11.770;2022-08-19T11:27:37;6.17;;;5.57;;
14849;SDS011;7517;48.400;11.770;2022-08-19T11:30:08;5.37;;;4.97;;
14849;SDS011;7517;48.400;11.770;2022-08-19T11:32:38;6.60;;;6.10;;
14849;SDS011;7517;48.400;11.770;2022-08-19T11:35:06;7.03;;;6.43;;
14849;SDS011;7517;48.400;11.770;2022-08-19T11:37:36;6.33;;;5.83;;
14849;SDS011;7517;48.400;11.770;2022-08-19T11:40:04;7.00;;;6.50;;
14849;SDS011;7517;48.400;11.770;2022-08-19T11:42:35;7.00;;;6.50;;
14849;SDS011;7517;48.400;11.770;2022-08-19T11:45:19;6.87;;;6.27;;
14849;SDS011;7517;48.400;11.770;2022-08-19T11:47:46;7.37;;;6.73;;
14849;SDS011;7517;48.400;11.770;2022-08-19T11:50:14;7.00;;;6.40;;
14849;SDS011;7517;48.400;11.770;2022-08-19T11:52:42;6.93;;;6.40;;
14849;SDS011;7517;48.400;11.770;2022-08-19T11:55:12;7.53;;;6.90;;
14849;SDS011;7517;48.400;11.770;2022-08-19T11:57:40;7.53;;;6.83;;
14849;SDS011;7517;48.400;11.770;2022-08-19T12:00:09;7.60;;;6.97;;
14849;SDS011;7517;48.400;11.770;2022-08-19T12:02:38;7.60;;;6.93;;
14849;SDS011;7517;48.400;11.770;2022-08-19T12:05:07;7.03;;;6.43;;
14849;SDS011;7517;48.400;11.770;2022-08-19T12:07:35;6.50;;;6.00;;
14849;SDS011;7517;48.400;11.770;2022-08-19T12:10:02;6.50;;;5.97;;
14849;SDS011;7517;48.400;11.770;2022-08-19T12:12:32;6.63;;;6.10;;
14849;SDS011;7517;48.400;11.770;2022-08-19T12:14:59;6.50;;;5.97;;
14849;SDS011;7517;48.400;11.770;2022-08-19T12:17:27;5.40;;;5.00;;
14849;SDS011;7517;48.400;11.770;2022-08-19T12:19:55;5.30;;;4.90;;
14849;SDS011;7517;48.400;11.770;2022-08-19T12:22:22;5.10;;;4.70;;
14849;SDS011;7517;48.400;11.770;2022-08-19T12:24:50;4.27;;;3.97;;
14849;SDS011;7517;48.400;11.770;2022-08-19T12:27:18;3.73;;;3.53;;
14849;SDS011;7517;48.400;11.770;2022-08-19T12:29:47;3.90;;;3.60;;
14849;SDS011;7517;48.400;11.770;2022-08-19T12:32:14;3.73;;;3.53;;
14849;SDS011;7517;48.400;11.770;2022-08-19T12:34:42;4.40;;;4.10;;
14849;SDS011;7517;48.400;11.770;2022-08-19T12:37:09;4.40;;;4.10;;
14849;SDS011;7517;48.400;11.770;2022-08-19T12:39:38;4.23;;;3.93;;
14849;SDS011;7517;48.400;11.770;2022-08-19T12:42:08;4.10;;;3.80;;
14849;SDS011;7517;48.400;11.770;2022-08-19T12:44:37;3.80;;;3.60;;
14849;SDS011;7517;48.400;11.770;2022-08-19T12:47:08;3.17;;;2.90;;
14849;SDS011;7517;48.400;11.770;2022-08-19T12:49:38;2.70;;;2.60;;
14849;SDS011;7517;48.400;11.770;2022-08-19T12:52:06;2.50;;;2.10;;
14849;SDS011;7517;48.400;11.770;2022-08-19T12:54:35;1.80;;;1.70;;
14849;SDS011;7517;48.400;11.770;2022-08-19T12:57:04;1.70;;;1.60;;
14849;SDS011;7517;48.400;11.770;2022-08-19T12:59:33;1.77;;;1.67;;
14849;SDS011;7517;48.400;11.770;2022-08-19T13:02:01;1.70;;;1.60;;
14849;SDS011;7517;48.400;11.770;2022-08-19T13:04:31;1.80;;;1.70;;
14849;SDS011;7517;48.400;11.770;2022-08-19T13:07:01;1.63;;;1.53;;
14849;SDS011;7517;48.400;11.770;2022-08-19T13:09:29;1.77;;;1.67;;
14849;SDS011;7517;48.400;11.770;2022-08-19T13:11:56;1.57;;;1.50;;
14849;SDS011;7517;48.400;11.770;2022-08-19T13:14:27;1.50;;;1.40;;
14849;SDS011;7517;48.400;11.770;2022-08-19T13:16:57;3.07;;;1.07;;
14849;SDS011;7517;48.400;11.770;2022-08-19T13:19:24;0.90;;;0.90;;
14849;SDS011;7517;48.400;11.770;2022-08-19T13:21:52;0.80;;;0.80;;
14849;SDS011;7517;48.400;11.770;2022-08-19T13:24:23;0.80;;;0.80;;
14849;SDS011;7517;48.400;11.770;2022-08-19T13:26:51;0.60;;;0.60;;
14849;SDS011;7517;48.400;11.770;2022-08-19T13:29:18;0.70;;;0.70;;
14849;SDS011;7517;48.400;11.770;2022-08-19T13:32:03;0.60;;;0.60;;
14849;SDS011;7517;48.400;11.770;2022-08-19T13:35:02;0.53;;;0.53;;
14849;SDS011;7517;48.400;11.770;2022-08-19T13:37:31;0.60;;;0.60;;
14849;SDS011;7517;48.400;11.770;2022-08-19T13:40:08;0.70;;;0.60;;
14849;SDS011;7517;48.400;11.770;2022-08-19T13:42:47;0.50;;;0.50;;
14849;SDS011;7517;48.400;11.770;2022-08-19T13:45:18;0.70;;;0.70;;
14849;SDS011;7517;48.400;11.770;2022-08-19T13:47:48;0.40;;;0.40;;
14849;SDS011;7517;48.400;11.770;2022-08-19T13:50:20;0.67;;;0.67;;
14849;SDS011;7517;48.400;11.770;2022-08-19T13:52:51;0.90;;;0.90;;
14849;SDS011;7517;48.400;11.770;2022-08-19T13:55:19;0.70;;;0.70;;
14849;SDS011;7517;48.400;11.770;2022-08-19T13:57:49;0.73;;;0.73;;
14849;SDS011;7517;48.400;11.770;2022-08-19T14:00:17;0.50;;;0.50;;
14849;SDS011;7517;48.400;11.770;2022-08-19T14:02:46;0.40;;;0.40;;
14849;SDS011;7517;48.400;11.770;2022-08-19T14:05:17;0.50;;;0.50;;
14849;SDS011;7517;48.400;11.770;2022-08-19T14:07:46;0.80;;;0.80;;
14849;SDS011;7517;48.400;11.770;2022-08-19T14:10:15;0.43;;;0.40;;
14849;SDS011;7517;48.400;11.770;2022-08-19T14:12:44;0.40;;;0.40;;
14849;SDS011;7517;48.400;11.770;2022-08-19T14:15:11;0.37;;;0.37;;
14849;SDS011;7517;48.400;11.770;2022-08-19T14:17:41;0.40;;;0.40;;
14849;SDS011;7517;48.400;11.770;2022-08-19T14:20:12;0.30;;;0.30;;
14849;SDS011;7517;48.400;11.770;2022-08-19T14:22:40;0.40;;;0.40;;
14849;SDS011;7517;48.400;11.770;2022-08-19T14:25:09;0.20;;;0.20;;
14849;SDS011;7517;48.400;11.770;2022-08-19T14:27:41;0.40;;;0.40;;
14849;SDS011;7517;48.400;11.770;2022-08-19T14:30:11;0.30;;;0.30;;
14849;SDS011;7517;48.400;11.770;2022-08-19T14:32:43;0.57;;;0.57;;
14849;SDS011;7517;48.400;11.770;2022-08-19T14:35:11;0.47;;;0.47;;
14849;SDS011;7517;48.400;11.770;2022-08-19T14:37:42;0.50;;;0.50;;
14849;SDS011;7517;48.400;11.770;2022-08-19T14:40:11;0.73;;;0.73;;
14849;SDS011;7517;48.400;11.770;2022-08-19T14:42:43;0.87;;;0.87;;
14849;SDS011;7517;48.400;11.770;2022-08-19T14:45:11;0.90;;;0.90;;
14849;SDS011;7517;48.400;11.770;2022-08-19T14:47:38;1.40;;;1.30;;
14849;SDS011;7517;48.400;11.770;2022-08-19T14:50:07;0.93;;;0.93;;
14849;SDS011;7517;48.400;11.770;2022-08-19T14:52:36;1.57;;;1.47;;
14849;SDS011;7517;48.400;11.770;2022-08-19T14:55:04;1.30;;;1.20;;
14849;SDS011;7517;48.400;11.770;2022-08-19T14:57:32;1.27;;;1.27;;
14849;SDS011;7517;48.400;11.770;2022-08-19T15:00:01;1.33;;;1.27;;
14849;SDS011;7517;48.400;11.770;2022-08-19T15:02:30;1.47;;;1.37;;
14849;SDS011;7517;48.400;11.770;2022-08-19T15:04:57;1.17;;;1.17;;